Latest Weather Observations for Learmonth

IDW60801

Issued at 10:35 am WST Saturday 2 August 2014 (issued every 30 minutes, with the page automatically refreshed every 10 minutes)

About weather observations | Map of weather stations | Latest weather observations for WA | Other Formats
Station Details ID: 005007 Name: LEARMONTH AIRPORT Lat: -22.24 Lon: 114.10 Height: 5.0 m
Data from the previous 72 hours. | See also: Recent months at Learmonth
Date/Time
WST
Temp
°C
App
Temp
°C
Dew
Point
Rel
Hum
%
Delta-T
°C
Wind Press
QNH
hPa
Press
MSL
hPa
Rain
since 9 am
mm
Dir
 
Spd
km/h
Gust
km/h
Spd
kts
Gust
kts
02/10:30am 24.8 21.2 2.8 24 10.6 SE 11 17 6 9 1020.5 - 0.0
02/10:00am 24.6 21.1 3.5 25 10.3 SSE 11 15 6 8 1020.5 - 0.0
02/09:30am 23.3 19.3 3.1 26 9.7 S 13 17 7 9 1020.2 - 0.0
02/09:00am 22.3 18.4 3.3 28 9.1 SSW 13 15 7 8 1019.9 1019.8 0.0
02/08:30am 20.3 16.7 5.2 37 7.4 SW 13 17 7 9 1019.7 - 0.0
02/08:00am 17.0 14.3 9.1 59 4.1 SW 13 15 7 8 1019.3 - 0.0
02/07:30am 14.8 11.4 7.5 61 3.6 WSW 15 17 8 9 1019.0 - 0.0
02/07:00am 14.5 11.3 6.9 60 3.7 WSW 13 17 7 9 1018.6 - 0.0
02/06:30am 14.2 10.9 8.2 67 3.0 WSW 15 17 8 9 1018.3 - 0.0
02/06:00am 14.8 12.2 9.3 69 2.8 WSW 13 15 7 8 1018.2 1018.1 0.0
02/05:30am 13.8 11.3 11.1 84 1.4 SW 15 17 8 9 1017.8 - 0.0
02/05:00am 14.9 13.3 12.7 87 1.2 WSW 13 15 7 8 1017.6 - 0.0
02/04:30am 14.7 13.8 13.8 94 0.5 WSW 11 15 6 8 1017.6 - 0.0
02/04:00am 15.2 14.6 14.7 97 0.3 SW 11 13 6 7 1017.7 - 0.0
02/03:30am 15.5 15.0 14.8 96 0.4 SW 11 13 6 7 1017.8 - 0.0
02/03:00am 16.5 16.3 15.6 94 0.5 S 11 13 6 7 1018.0 1017.9 0.0
02/02:30am 17.1 17.0 16.1 94 0.6 SSE 11 15 6 8 1018.2 - 0.0
02/02:00am 17.7 17.4 16.4 92 0.8 SE 13 20 7 11 1018.2 - 0.0
02/01:30am 17.9 18.3 16.2 90 1.0 SE 9 15 5 8 1018.3 - 0.0
02/01:00am 18.7 20.0 16.2 85 1.5 W 4 7 2 4 1018.2 - 0.0
02/12:30am 19.3 19.4 16.5 84 1.7 WSW 11 13 6 7 1018.3 - 0.0
02/12:00am 19.5 20.0 15.6 78 2.3 WSW 7 9 4 5 1018.5 1018.4 0.0
 
Date/Time
WST
Temp
°C
App
Temp
°C
Dew
Point
Rel
Hum
%
Delta-T
°C
Wind Press
QNH
hPa
Press
MSL
hPa
Rain
since 9 am
mm
Dir
 
Spd
km/h
Gust
km/h
Spd
kts
Gust
kts
01/11:30pm 18.7 18.6 14.9 78 2.2 SW 9 13 5 7 1018.5 - 0.0
01/11:00pm 18.1 17.7 14.1 77 2.3 SW 9 13 5 7 1018.7 - 0.0
01/10:30pm 18.3 17.5 13.9 75 2.5 W 11 13 6 7 1018.7 - 0.0
01/10:00pm 18.0 17.6 14.2 78 2.2 WSW 9 13 5 7 1018.6 - 0.0
01/09:30pm 17.5 16.1 14.4 82 1.8 W 15 17 8 9 1018.5 - 0.0
01/09:00pm 16.2 15.2 13.3 83 1.6 SW 11 13 6 7 1018.7 1018.6 0.0
01/08:30pm 16.6 15.5 13.2 80 1.9 SSW 11 13 6 7 1018.6 - 0.0
01/08:00pm 18.6 18.8 13.1 70 3.1 SW 4 9 2 5 1018.5 - 0.0
01/07:30pm 19.7 18.6 13.0 65 3.8 WSW 11 13 6 7 1018.0 - 0.0
01/07:00pm 20.5 19.3 12.9 61 4.3 WSW 11 13 6 7 1017.8 - 0.0
01/06:30pm 21.6 23.9 16.7 73 3.0 CALM 0 4 0 2 1017.6 - 0.0
01/06:00pm 21.7 22.0 18.0 79 2.3 NNW 13 15 7 8 1017.2 1017.1 0.0
01/05:30pm 23.0 23.1 18.4 75 2.9 N 15 20 8 11 1017.0 - 0.0
01/05:00pm 24.4 24.0 17.1 63 4.5 N 15 20 8 11 1016.8 - 0.0
01/04:30pm 24.4 23.9 17.7 66 4.2 N 17 20 9 11 1016.7 - 0.0
01/04:00pm 24.7 23.8 18.2 67 4.1 N 20 24 11 13 1016.6 - 0.0
01/03:30pm 24.6 23.4 17.0 62 4.7 N 19 24 10 13 1016.5 - 0.0
01/03:00pm 24.7 23.0 14.8 54 5.9 NNE 17 22 9 12 1016.5 1016.4 0.0
01/02:30pm 24.2 21.7 14.0 53 6.0 NNE 20 24 11 13 1016.5 - 0.0
01/02:00pm 25.3 23.1 14.3 50 6.5 N 19 26 10 14 1016.7 - 0.0
01/01:30pm 25.2 23.0 12.1 44 7.5 N 15 20 8 11 1017.0 - 0.0
01/01:00pm 25.4 21.6 5.9 28 10.0 NNE 15 20 8 11 1017.3 - 0.0
01/12:30pm 25.2 21.9 4.3 26 10.4 NNE 11 19 6 10 1017.7 - 0.0
01/12:00pm 24.4 21.3 3.5 25 10.2 ENE 9 13 5 7 1018.0 1017.9 0.0
01/11:30am 24.4 21.3 3.8 26 10.1 E 9 17 5 9 1018.3 - 0.0
01/11:00am 23.5 20.5 4.1 28 9.5 SE 9 15 5 8 1018.4 - 0.0
01/10:30am 23.0 19.4 2.9 26 9.6 ESE 11 15 6 8 1018.7 - 0.0
01/10:00am 23.4 19.7 4.3 29 9.4 SE 13 20 7 11 1018.9 - 0.0
01/09:30am 23.3 20.2 3.8 28 9.5 SSE 9 13 5 7 1018.7 - 0.0
01/09:00am 22.1 18.4 4.2 31 8.7 SSE 13 19 7 10 1018.7 1018.6 0.0
01/08:30am 20.4 17.1 4.4 35 7.7 S 11 17 6 9 1018.5 - 0.0
01/08:00am 18.7 16.4 5.6 42 6.4 SW 7 11 4 6 1018.3 - 0.0
01/07:30am 17.7 14.8 4.9 42 6.1 SW 9 13 5 7 1018.1 - 0.0
01/07:00am 18.1 15.3 5.0 42 6.3 S 9 11 5 6 1017.8 - 0.0
01/06:30am 18.8 15.1 4.3 38 6.9 SW 13 19 7 10 1017.6 - 0.0
01/06:00am 17.7 14.8 4.4 41 6.3 W 9 13 5 7 1017.2 1017.1 0.0
01/05:30am 17.0 13.3 4.5 43 5.9 SW 13 17 7 9 1016.8 - 0.0
01/05:00am 17.6 13.4 3.9 40 6.4 SW 15 19 8 10 1016.8 - 0.0
01/04:30am 17.6 13.3 3.3 38 6.6 SW 15 17 8 9 1016.7 - 0.0
01/04:00am 17.8 13.1 3.0 37 6.8 SW 17 19 9 10 1016.6 - 0.0
01/03:30am 17.5 12.9 3.5 39 6.5 SW 17 19 9 10 1016.8 - 0.0
01/03:00am 17.9 13.6 3.5 38 6.7 WSW 15 17 8 9 1016.9 1016.8 0.0
01/02:30am 18.4 14.2 3.7 37 6.9 SW 15 17 8 9 1017.0 - 0.0
01/02:00am 18.7 14.5 3.8 37 7.0 SW 15 19 8 10 1017.1 - 0.0
01/01:30am 18.0 14.0 4.8 41 6.3 SW 15 17 8 9 1017.3 - 0.0
01/01:00am 18.4 14.4 4.9 41 6.5 WSW 15 15 8 8 1017.5 - 0.0
01/12:30am 18.2 14.1 6.2 45 5.9 WSW 17 17 9 9 1017.6 - 0.0
01/12:00am 18.7 15.3 7.7 48 5.6 SW 15 17 8 9 1017.7 1017.6 0.0
 
Date/Time
WST
Temp
°C
App
Temp
°C
Dew
Point
Rel
Hum
%
Delta-T
°C
Wind Press
QNH
hPa
Press
MSL
hPa
Rain
since 9 am
mm
Dir
 
Spd
km/h
Gust
km/h
Spd
kts
Gust
kts
31/11:30pm 18.5 15.0 8.6 52 5.1 SW 17 17 9 9 1017.9 - 0.0
31/11:00pm 18.9 16.5 11.4 61 4.1 SW 15 17 8 9 1018.0 - 0.0
31/10:30pm 19.2 16.4 11.3 60 4.3 SW 17 22 9 12 1018.0 - 0.0
31/10:00pm 16.5 14.7 12.1 75 2.4 SSW 13 15 7 8 1017.9 - 0.0
31/09:30pm 17.5 16.0 12.0 70 3.0 SW 11 13 6 7 1017.7 - 0.0
31/09:00pm 17.7 16.2 11.9 69 3.2 SSW 11 13 6 7 1017.6 1017.5 0.0
31/08:30pm 18.6 17.1 11.9 65 3.7 SW 11 15 6 8 1017.4 - 0.0
31/08:00pm 20.8 20.1 13.3 62 4.3 SW 9 11 5 6 1017.2 - 0.0
31/07:30pm 21.6 20.3 13.6 60 4.6 W 13 13 7 7 1016.9 - 0.0
31/07:00pm 22.5 20.7 12.2 52 5.8 W 13 15 7 8 1016.7 - 0.0
31/06:30pm 24.3 21.6 5.8 30 9.4 W 9 13 5 7 1016.7 - 0.0
31/06:00pm 25.7 22.9 3.3 23 11.0 WNW 7 9 4 5 1016.5 1016.4 0.0
31/05:30pm 26.3 23.8 4.7 25 10.9 NNW 7 9 4 5 1016.4 - 0.0
31/05:00pm 27.6 25.0 3.2 21 12.1 N 6 7 3 4 1016.3 - 0.0
31/04:30pm 27.8 25.2 3.3 20 12.2 NE 6 9 3 5 1016.3 - 0.0
31/04:00pm 28.0 25.2 3.0 20 12.4 E 7 9 4 5 1016.3 - 0.0
31/03:30pm 27.9 25.0 2.8 20 12.4 ENE 7 9 4 5 1016.4 - 0.0
31/03:00pm 28.1 24.7 2.1 18 12.7 ENE 9 13 5 7 1016.6 1016.5 0.0
31/02:30pm 27.7 23.4 1.2 18 12.7 E 13 17 7 9 1016.7 - 0.0
31/02:00pm 27.5 22.7 2.6 20 12.2 ESE 17 20 9 11 1017.0 - 0.0
31/01:30pm 27.3 22.5 2.6 20 12.1 ESE 17 22 9 12 1017.5 - 0.0
31/01:00pm 27.2 21.7 1.6 19 12.3 ESE 20 24 11 13 1017.8 - 0.0
31/12:30pm 26.9 21.8 3.2 21 11.7 ESE 19 24 10 13 1018.2 - 0.0
31/12:00pm 26.1 19.9 1.9 20 11.6 ESE 24 32 13 17 1018.7 1018.6 0.0
31/11:30am 25.9 20.1 4.6 25 10.7 ESE 24 30 13 16 1019.1 - 0.0
31/11:00am 24.6 18.8 4.5 27 10.0 ESE 24 32 13 17 1019.2 - 0.0
31/10:30am 24.4 19.0 4.4 27 9.9 ESE 22 28 12 15 1019.5 - 0.0
31/10:00am 23.7 18.4 6.8 33 8.7 ESE 24 32 13 17 1019.5 - 0.0
31/09:30am 22.9 18.9 6.7 35 8.3 SE 17 26 9 14 1019.5 - 0.0
31/09:00am 22.2 18.9 6.4 36 8.0 S 13 17 7 9 1019.3 1019.2 0.0
31/08:30am 21.1 18.6 6.4 38 7.4 SW 9 13 5 7 1019.3 - 0.0
31/08:00am 18.6 15.9 7.5 48 5.6 SSW 11 13 6 7 1018.9 - 0.0
31/07:30am 17.2 14.2 7.7 53 4.8 SSW 13 17 7 9 1018.8 - 0.0
31/07:00am 17.0 14.5 8.4 57 4.4 SSW 11 13 6 7 1018.7 - 0.0
31/06:30am 17.5 14.5 7.8 53 4.9 SW 13 15 7 8 1018.4 - 0.0
31/06:00am 18.1 15.4 7.4 49 5.4 SW 11 13 6 7 1018.1 1018.0 0.0
31/05:30am 19.1 16.9 6.4 43 6.3 SSW 7 9 4 5 1017.9 - 0.0
31/05:00am 18.2 15.1 7.3 49 5.5 SSW 13 15 7 8 1017.7 - 0.0
31/04:30am 18.5 15.5 7.7 49 5.5 SW 13 13 7 7 1017.7 - 0.0
31/04:00am 18.9 16.7 8.0 49 5.6 SW 9 11 5 6 1017.7 - 0.0
31/03:30am 18.5 16.9 10.3 59 4.4 SW 9 15 5 8 1017.7 - 0.0
31/03:00am 18.8 17.2 11.7 63 3.9 SSW 11 13 6 7 1017.5 1017.4 0.0
31/02:30am 20.0 18.2 12.1 60 4.4 SSW 13 17 7 9 1017.7 - 0.0
31/02:00am 20.9 19.2 14.8 68 3.6 SSW 17 20 9 11 1017.5 - 0.0
31/01:30am 21.0 20.9 16.9 77 2.5 SW 13 15 7 8 1017.8 - 0.0
31/01:00am 21.6 21.3 17.4 77 2.6 SW 15 19 8 10 1017.9 - 0.0
31/12:30am 22.1 22.2 17.4 74 2.9 WSW 13 15 7 8 1018.1 - 0.0
31/12:00am 22.3 22.2 16.9 71 3.3 WSW 13 17 7 9 1018.3 1018.2 0.0
 
Date/Time
WST
Temp
°C
App
Temp
°C
Dew
Point
Rel
Hum
%
Delta-T
°C
Wind Press
QNH
hPa
Press
MSL
hPa
Rain
since 9 am
mm
Dir
 
Spd
km/h
Gust
km/h
Spd
kts
Gust
kts
30/11:30pm 22.3 22.0 16.5 69 3.5 WSW 13 15 7 8 1018.4 - 0.0
30/11:00pm 21.9 21.2 14.2 61 4.5 WSW 11 13 6 7 1018.4 - 0.0
30/10:30pm 22.7 22.6 13.9 57 5.1 W 7 11 4 6 1018.6 - 0.0
30/10:00pm 22.9 21.6 13.6 55 5.4 W 13 19 7 10 1018.4 - 0.0
30/09:30pm 22.7 22.1 12.3 52 5.9 WSW 7 11 4 6 1018.4 - 0.0
30/09:00pm 23.6 22.1 10.5 43 7.2 WNW 9 13 5 7 1018.3 1018.2 0.0
30/08:30pm 22.5 20.4 11.1 48 6.3 N 13 15 7 8 1018.3 - 0.0
30/08:00pm 23.6 22.5 10.5 43 7.2 W 7 11 4 6 1018.0 - 0.0
30/07:30pm 24.0 23.0 10.2 41 7.6 WNW 6 7 3 4 1017.7 - 0.0
30/07:00pm 23.9 21.6 7.5 35 8.6 W 9 11 5 6 1017.4 - 0.0
30/06:30pm 22.6 20.7 9.1 42 7.2 N 9 11 5 6 1017.1 - 0.0
30/06:00pm 23.7 20.9 7.1 34 8.6 N 11 13 6 7 1017.1 1017.0 0.0
30/05:30pm 25.5 22.1 3.9 24 10.7 N 11 13 6 7 1017.1 - 0.0
30/05:00pm 26.5 22.5 2.7 21 11.6 N 13 17 7 9 1017.2 - 0.0
30/04:30pm 27.4 22.8 1.3 18 12.5 N 15 20 8 11 1017.0 - 0.0
30/04:00pm 27.7 22.4 1.6 18 12.6 N 19 22 10 12 1017.0 - 0.0
30/03:30pm 28.2 24.2 3.0 20 12.5 N 13 19 7 10 1017.0 - 0.0
30/03:00pm 27.7 23.4 3.1 20 12.2 N 15 20 8 11 1017.3 1017.2 0.0
30/02:30pm 28.3 25.1 2.9 19 12.6 NE 9 15 5 8 1017.2 - 0.0
30/02:00pm 28.1 24.4 2.4 19 12.6 ENE 11 13 6 7 1017.4 - 0.0
30/01:30pm 28.3 24.4 3.2 20 12.5 ESE 13 19 7 10 1017.5 - 0.0
30/01:00pm 27.4 23.3 2.0 19 12.3 SE 13 19 7 10 1018.0 - 0.0
30/12:30pm 26.9 23.3 2.8 21 11.8 SE 11 15 6 8 1018.6 - 0.0
30/12:00pm 25.3 22.0 2.4 22 11.0 SE 9 13 5 7 1019.1 1019.0 0.0
30/11:30am 24.8 21.0 1.8 22 10.9 SE 11 15 6 8 1019.4 - 0.0
30/11:00am 24.4 21.5 1.7 22 10.7 SE 6 15 3 8 1019.9 - 0.0

Other Formats:

Comma delimited format used in spreadsheet applications
http://www.bom.gov.au/fwo/IDW60801/IDW60801.94302.axf

JavaScript Object Notation format (JSON) in row-major order
http://www.bom.gov.au/fwo/IDW60801/IDW60801.94302.json